Terminal Aerodrome Forecast
Issued by NWS

Home | Current Version | Previous Version | Text Only | Print | Product List | Glossary On
Versions: 1 2 3 4 5 6 7 8 9 10 11 12 13 14 15 16
000
FTUS46 KLOX 061142
TAFPMD
TAF
KPMD 061142Z 0612/0712 24010KT P6SM VCSH SCT030 BKN070
     FM062000 24017G25KT P6SM -SHRA SCT035 BKN060
      TEMPO 0621/0623 6SM -TSRA BKN035CB OVC060
     FM070200 24012KT P6SM VCSH SCT030 BKN070
     FM070700 23010KT P6SM -SHRA SCT035 BKN060=

USA.gov is the U.S. government's official web portal to all federal, state and local government web resources and services.